sensor_id;sensor_type;location;lat;lon;timestamp;pressure;altitude;pressure_sealevel;temperature;humidity
6393;BME280;3229;42.674;23.282;2023-09-19T00:00:16;95019.53;;;18.03;81.30
6393;BME280;3229;42.674;23.282;2023-09-19T00:02:45;95017.47;;;17.98;81.15
6393;BME280;3229;42.674;23.282;2023-09-19T00:05:13;95016.84;;;17.96;81.25
6393;BME280;3229;42.674;23.282;2023-09-19T00:07:40;95013.97;;;17.91;81.28
6393;BME280;3229;42.674;23.282;2023-09-19T00:10:07;95016.47;;;17.85;81.51
6393;BME280;3229;42.674;23.282;2023-09-19T00:12:35;95030.38;;;17.84;81.89
6393;BME280;3229;42.674;23.282;2023-09-19T00:15:04;95028.94;;;17.81;82.25
6393;BME280;3229;42.674;23.282;2023-09-19T00:17:32;95022.78;;;17.82;82.15
6393;BME280;3229;42.674;23.282;2023-09-19T00:20:00;95018.59;;;17.81;82.26
6393;BME280;3229;42.674;23.282;2023-09-19T00:22:39;95013.41;;;17.81;82.22
6393;BME280;3229;42.674;23.282;2023-09-19T00:25:07;95012.59;;;17.80;82.53
6393;BME280;3229;42.674;23.282;2023-09-19T00:27:35;95005.06;;;17.71;82.68
6393;BME280;3229;42.674;23.282;2023-09-19T00:30:07;95011.19;;;17.70;82.55
6393;BME280;3229;42.674;23.282;2023-09-19T00:32:40;95014.16;;;17.67;82.72
6393;BME280;3229;42.674;23.282;2023-09-19T00:35:07;94902.19;;;16.97;82.60
6393;BME280;3229;42.674;23.282;2023-09-19T00:37:36;94992.06;;;17.56;83.31
6393;BME280;3229;42.674;23.282;2023-09-19T00:40:03;94991.06;;;17.57;83.11
6393;BME280;3229;42.674;23.282;2023-09-19T00:42:31;95001.41;;;17.57;83.04
6393;BME280;3229;42.674;23.282;2023-09-19T00:44:59;94996.94;;;17.51;83.47
6393;BME280;3229;42.674;23.282;2023-09-19T00:47:30;94983.16;;;17.36;83.80
6393;BME280;3229;42.674;23.282;2023-09-19T00:49:57;95013.50;;;17.42;84.21
6393;BME280;3229;42.674;23.282;2023-09-19T00:52:24;95006.41;;;17.36;84.58
6393;BME280;3229;42.674;23.282;2023-09-19T00:54:51;95006.94;;;17.31;85.04
6393;BME280;3229;42.674;23.282;2023-09-19T00:57:18;95005.84;;;17.25;85.42
6393;BME280;3229;42.674;23.282;2023-09-19T00:59:50;95007.34;;;17.20;85.76
6393;BME280;3229;42.674;23.282;2023-09-19T01:02:20;95006.25;;;17.14;86.24
6393;BME280;3229;42.674;23.282;2023-09-19T01:04:49;95007.09;;;17.07;86.58
6393;BME280;3229;42.674;23.282;2023-09-19T01:07:15;95001.63;;;17.01;86.71
6393;BME280;3229;42.674;23.282;2023-09-19T01:09:43;95001.31;;;16.96;86.94
6393;BME280;3229;42.674;23.282;2023-09-19T01:12:11;95000.69;;;16.94;87.05
6393;BME280;3229;42.674;23.282;2023-09-19T01:14:51;94998.78;;;16.88;87.50
6393;BME280;3229;42.674;23.282;2023-09-19T01:17:27;95005.91;;;16.86;87.69
6393;BME280;3229;42.674;23.282;2023-09-19T01:20:26;94994.97;;;16.68;88.16
6393;BME280;3229;42.674;23.282;2023-09-19T01:23:14;95011.41;;;16.75;88.23
6393;BME280;3229;42.674;23.282;2023-09-19T01:26:07;95010.94;;;16.71;88.60
6393;BME280;3229;42.674;23.282;2023-09-19T01:28:52;95011.59;;;16.65;88.78
6393;BME280;3229;42.674;23.282;2023-09-19T01:31:24;95007.72;;;16.61;89.03
6393;BME280;3229;42.674;23.282;2023-09-19T01:33:57;95005.66;;;16.56;89.49
6393;BME280;3229;42.674;23.282;2023-09-19T01:36:28;95004.84;;;16.56;89.48
6393;BME280;3229;42.674;23.282;2023-09-19T01:38:57;94996.97;;;16.49;89.34
6393;BME280;3229;42.674;23.282;2023-09-19T01:41:38;95010.50;;;16.60;89.81
6393;BME280;3229;42.674;23.282;2023-09-19T01:44:09;95002.09;;;16.58;89.69
6393;BME280;3229;42.674;23.282;2023-09-19T01:46:42;95000.81;;;16.53;89.86
6393;BME280;3229;42.674;23.282;2023-09-19T01:49:22;94919.06;;;15.98;90.04
6393;BME280;3229;42.674;23.282;2023-09-19T01:52:02;95000.03;;;16.45;90.33
6393;BME280;3229;42.674;23.282;2023-09-19T01:54:33;94998.44;;;16.44;90.32
6393;BME280;3229;42.674;23.282;2023-09-19T01:57:07;95004.56;;;16.43;90.34
6393;BME280;3229;42.674;23.282;2023-09-19T01:59:39;94996.66;;;16.36;90.75
6393;BME280;3229;42.674;23.282;2023-09-19T02:02:10;95000.88;;;16.37;90.64
6393;BME280;3229;42.674;23.282;2023-09-19T02:04:38;95000.88;;;16.37;90.64
6393;BME280;3229;42.674;23.282;2023-09-19T02:07:04;95007.16;;;16.35;90.65
6393;BME280;3229;42.674;23.282;2023-09-19T02:09:33;95005.56;;;16.34;90.58
6393;BME280;3229;42.674;23.282;2023-09-19T02:12:00;95003.31;;;16.30;90.99
6393;BME280;3229;42.674;23.282;2023-09-19T02:14:30;94997.03;;;16.25;91.06
6393;BME280;3229;42.674;23.282;2023-09-19T02:16:58;95004.09;;;16.31;90.92
6393;BME280;3229;42.674;23.282;2023-09-19T02:19:26;95006.56;;;16.24;91.10
6393;BME280;3229;42.674;23.282;2023-09-19T02:21:53;94991.41;;;16.21;91.26
6393;BME280;3229;42.674;23.282;2023-09-19T02:24:20;94997.34;;;16.22;91.48
6393;BME280;3229;42.674;23.282;2023-09-19T02:26:47;94986.41;;;16.20;91.31
6393;BME280;3229;42.674;23.282;2023-09-19T02:29:13;94992.50;;;16.19;91.33
6393;BME280;3229;42.674;23.282;2023-09-19T02:31:40;94984.47;;;16.14;91.66
6393;BME280;3229;42.674;23.282;2023-09-19T02:34:07;94985.28;;;16.14;91.58
6393;BME280;3229;42.674;23.282;2023-09-19T02:36:36;94988.81;;;16.13;91.64
6393;BME280;3229;42.674;23.282;2023-09-19T02:39:03;94952.28;;;15.93;91.71
6393;BME280;3229;42.674;23.282;2023-09-19T02:41:31;94984.81;;;16.11;91.74
6393;BME280;3229;42.674;23.282;2023-09-19T02:43:58;94974.16;;;16.05;91.77
6393;BME280;3229;42.674;23.282;2023-09-19T02:46:27;94969.00;;;16.05;91.79
6393;BME280;3229;42.674;23.282;2023-09-19T02:48:54;94968.19;;;16.05;91.92
6393;BME280;3229;42.674;23.282;2023-09-19T02:51:21;94966.78;;;16.02;92.50
6393;BME280;3229;42.674;23.282;2023-09-19T02:53:49;94960.16;;;16.00;92.48
6393;BME280;3229;42.674;23.282;2023-09-19T02:56:17;94969.00;;;15.97;92.37
6393;BME280;3229;42.674;23.282;2023-09-19T02:58:45;94964.84;;;15.96;92.28
6393;BME280;3229;42.674;23.282;2023-09-19T03:01:12;94964.84;;;15.96;92.52
6393;BME280;3229;42.674;23.282;2023-09-19T03:03:39;94962.41;;;15.95;92.49
6393;BME280;3229;42.674;23.282;2023-09-19T03:06:06;94955.00;;;15.92;92.71
6393;BME280;3229;42.674;23.282;2023-09-19T03:08:34;94952.59;;;15.90;92.98
6393;BME280;3229;42.674;23.282;2023-09-19T03:11:04;94949.38;;;15.88;93.11
6393;BME280;3229;42.674;23.282;2023-09-19T03:13:33;94958.25;;;15.86;93.29
6393;BME280;3229;42.674;23.282;2023-09-19T03:16:01;94951.50;;;15.85;93.28
6393;BME280;3229;42.674;23.282;2023-09-19T03:18:31;94957.44;;;15.85;93.28
6393;BME280;3229;42.674;23.282;2023-09-19T03:20:58;94941.31;;;15.83;93.69
6393;BME280;3229;42.674;23.282;2023-09-19T03:23:26;94954.22;;;15.83;93.68
6393;BME280;3229;42.674;23.282;2023-09-19T03:25:54;94954.38;;;15.82;93.76
6393;BME280;3229;42.674;23.282;2023-09-19T03:28:23;94951.00;;;15.81;93.67
6393;BME280;3229;42.674;23.282;2023-09-19T03:31:00;94949.53;;;15.78;93.77
6393;BME280;3229;42.674;23.282;2023-09-19T03:33:27;94957.47;;;15.77;93.82
6393;BME280;3229;42.674;23.282;2023-09-19T03:35:57;94961.81;;;15.76;94.04
6393;BME280;3229;42.674;23.282;2023-09-19T03:38:24;94961.81;;;15.76;94.26
6393;BME280;3229;42.674;23.282;2023-09-19T03:40:52;94969.53;;;15.76;94.11
6393;BME280;3229;42.674;23.282;2023-09-19T03:43:19;94969.69;;;15.75;94.27
6393;BME280;3229;42.674;23.282;2023-09-19T03:45:47;94966.16;;;15.76;94.08
6393;BME280;3229;42.674;23.282;2023-09-19T03:48:16;94936.31;;;15.57;93.88
6393;BME280;3229;42.674;23.282;2023-09-19T03:50:43;94974.84;;;15.75;94.19
6393;BME280;3229;42.674;23.282;2023-09-19T03:53:09;94978.72;;;15.71;94.03
6393;BME280;3229;42.674;23.282;2023-09-19T03:55:36;94978.25;;;15.67;94.12
6393;BME280;3229;42.674;23.282;2023-09-19T03:58:04;94890.56;;;15.10;94.08
6393;BME280;3229;42.674;23.282;2023-09-19T04:00:31;94975.03;;;15.65;94.37
6393;BME280;3229;42.674;23.282;2023-09-19T04:03:01;94970.16;;;15.62;94.55
6393;BME280;3229;42.674;23.282;2023-09-19T04:05:31;94971.13;;;15.61;94.44
6393;BME280;3229;42.674;23.282;2023-09-19T04:07:58;94981.16;;;15.64;94.45
6393;BME280;3229;42.674;23.282;2023-09-19T04:10:25;94986.94;;;15.66;94.27
6393;BME280;3229;42.674;23.282;2023-09-19T04:12:52;94950.66;;;15.35;93.84
6393;BME280;3229;42.674;23.282;2023-09-19T04:15:19;94997.56;;;15.71;94.42
6393;BME280;3229;42.674;23.282;2023-09-19T04:17:48;94990.97;;;15.69;94.34
6393;BME280;3229;42.674;23.282;2023-09-19T04:20:16;94988.72;;;15.66;94.42
6393;BME280;3229;42.674;23.282;2023-09-19T04:22:45;94988.56;;;15.67;94.51
6393;BME280;3229;42.674;23.282;2023-09-19T04:25:11;94985.81;;;15.69;94.36
6393;BME280;3229;42.674;23.282;2023-09-19T04:27:38;94990.66;;;15.72;94.63
6393;BME280;3229;42.674;23.282;2023-09-19T04:30:07;94980.81;;;15.75;94.54
6393;BME280;3229;42.674;23.282;2023-09-19T04:32:37;94976.47;;;15.76;94.42
6393;BME280;3229;42.674;23.282;2023-09-19T04:35:06;94984.03;;;15.86;94.24
6393;BME280;3229;42.674;23.282;2023-09-19T04:37:37;94979.03;;;15.92;93.77
6393;BME280;3229;42.674;23.282;2023-09-19T04:40:06;94973.06;;;16.00;93.86
6393;BME280;3229;42.674;23.282;2023-09-19T04:42:38;94972.25;;;16.08;93.42
6393;BME280;3229;42.674;23.282;2023-09-19T04:45:06;94958.38;;;16.09;93.10
6393;BME280;3229;42.674;23.282;2023-09-19T04:47:35;94974.78;;;16.32;92.70
6393;BME280;3229;42.674;23.282;2023-09-19T04:50:07;94976.19;;;16.43;92.38
6393;BME280;3229;42.674;23.282;2023-09-19T04:52:40;94976.63;;;16.54;91.83
6393;BME280;3229;42.674;23.282;2023-09-19T04:55:10;94969.28;;;16.66;91.42
6393;BME280;3229;42.674;23.282;2023-09-19T04:57:43;94975.88;;;16.85;90.52
6393;BME280;3229;42.674;23.282;2023-09-19T05:00:12;94969.78;;;17.01;89.82
6393;BME280;3229;42.674;23.282;2023-09-19T05:02:40;94965.13;;;17.27;88.97
6393;BME280;3229;42.674;23.282;2023-09-19T05:05:07;94951.13;;;17.45;88.02
6393;BME280;3229;42.674;23.282;2023-09-19T05:07:35;94957.50;;;17.72;86.71
6393;BME280;3229;42.674;23.282;2023-09-19T05:10:04;94977.13;;;18.04;85.64
6393;BME280;3229;42.674;23.282;2023-09-19T05:12:33;94966.34;;;18.30;84.16
6393;BME280;3229;42.674;23.282;2023-09-19T05:15:00;94966.00;;;18.63;83.15
6393;BME280;3229;42.674;23.282;2023-09-19T05:17:28;94974.44;;;19.01;81.60
6393;BME280;3229;42.674;23.282;2023-09-19T05:19:55;94967.50;;;19.23;79.42
6393;BME280;3229;42.674;23.282;2023-09-19T05:22:22;94976.97;;;19.30;78.82
6393;BME280;3229;42.674;23.282;2023-09-19T05:24:50;94971.50;;;19.47;78.48
6393;BME280;3229;42.674;23.282;2023-09-19T05:27:19;94959.63;;;19.74;77.61
6393;BME280;3229;42.674;23.282;2023-09-19T05:29:47;94963.81;;;20.03;76.63
6393;BME280;3229;42.674;23.282;2023-09-19T05:32:14;94958.47;;;20.39;75.59
6393;BME280;3229;42.674;23.282;2023-09-19T05:34:41;94960.03;;;20.68;73.52
6393;BME280;3229;42.674;23.282;2023-09-19T05:37:08;94965.13;;;20.90;72.01
6393;BME280;3229;42.674;23.282;2023-09-19T05:39:34;94963.97;;;21.12;71.22
6393;BME280;3229;42.674;23.282;2023-09-19T05:42:03;94954.72;;;20.96;70.51
6393;BME280;3229;42.674;23.282;2023-09-19T05:44:31;94955.06;;;20.80;71.08
6393;BME280;3229;42.674;23.282;2023-09-19T05:46:58;94954.88;;;20.82;71.79
6393;BME280;3229;42.674;23.282;2023-09-19T05:49:25;94953.72;;;20.91;71.23
6393;BME280;3229;42.674;23.282;2023-09-19T05:51:53;94953.13;;;21.02;70.81
6393;BME280;3229;42.674;23.282;2023-09-19T05:54:21;94947.13;;;20.95;70.02
6393;BME280;3229;42.674;23.282;2023-09-19T05:56:48;94942.88;;;20.80;70.87
6393;BME280;3229;42.674;23.282;2023-09-19T05:59:18;94960.66;;;20.77;71.13
6393;BME280;3229;42.674;23.282;2023-09-19T06:01:46;94958.41;;;20.61;71.47
6393;BME280;3229;42.674;23.282;2023-09-19T06:04:13;94955.16;;;20.59;71.60
6393;BME280;3229;42.674;23.282;2023-09-19T06:06:40;94950.97;;;20.58;71.69
6393;BME280;3229;42.674;23.282;2023-09-19T06:09:08;94946.56;;;20.58;72.10
6393;BME280;3229;42.674;23.282;2023-09-19T06:11:34;94949.28;;;20.78;71.81
6393;BME280;3229;42.674;23.282;2023-09-19T06:14:01;94952.97;;;21.10;70.22
6393;BME280;3229;42.674;23.282;2023-09-19T06:16:28;94950.22;;;21.25;68.57
6393;BME280;3229;42.674;23.282;2023-09-19T06:18:57;94947.41;;;21.26;68.50
6393;BME280;3229;42.674;23.282;2023-09-19T06:21:25;94946.88;;;21.38;68.15
6393;BME280;3229;42.674;23.282;2023-09-19T06:23:52;94935.25;;;21.53;67.27
6393;BME280;3229;42.674;23.282;2023-09-19T06:26:19;94930.66;;;21.75;66.77
6393;BME280;3229;42.674;23.282;2023-09-19T06:28:46;94931.81;;;22.06;65.85
6393;BME280;3229;42.674;23.282;2023-09-19T06:31:13;94929.59;;;22.36;65.10
6393;BME280;3229;42.674;23.282;2023-09-19T06:33:40;94934.47;;;22.77;63.44
6393;BME280;3229;42.674;23.282;2023-09-19T06:36:09;94930.38;;;23.01;61.75
6393;BME280;3229;42.674;23.282;2023-09-19T06:38:36;94915.00;;;23.18;61.50
6393;BME280;3229;42.674;23.282;2023-09-19T06:41:05;94939.34;;;23.44;61.21
6393;BME280;3229;42.674;23.282;2023-09-19T06:43:33;94938.91;;;23.47;60.80
6393;BME280;3229;42.674;23.282;2023-09-19T06:46:00;94930.22;;;23.53;60.60
6393;BME280;3229;42.674;23.282;2023-09-19T06:48:27;94931.84;;;23.54;59.79
6393;BME280;3229;42.674;23.282;2023-09-19T06:50:55;94938.16;;;23.40;60.48
6393;BME280;3229;42.674;23.282;2023-09-19T06:53:25;94943.19;;;23.41;60.56
6393;BME280;3229;42.674;23.282;2023-09-19T06:55:52;94948.03;;;23.38;61.08
6393;BME280;3229;42.674;23.282;2023-09-19T06:58:19;94952.09;;;23.27;61.45
6393;BME280;3229;42.674;23.282;2023-09-19T07:00:46;94954.50;;;23.28;61.52
6393;BME280;3229;42.674;23.282;2023-09-19T07:03:15;94947.88;;;23.33;60.56
6393;BME280;3229;42.674;23.282;2023-09-19T07:05:47;94949.28;;;23.28;60.90
6393;BME280;3229;42.674;23.282;2023-09-19T07:08:14;94947.41;;;23.36;60.97
6393;BME280;3229;42.674;23.282;2023-09-19T07:10:42;94949.97;;;23.49;61.34
6393;BME280;3229;42.674;23.282;2023-09-19T07:13:14;94932.38;;;23.38;60.98
6393;BME280;3229;42.674;23.282;2023-09-19T07:15:43;94948.47;;;23.60;60.31
6393;BME280;3229;42.674;23.282;2023-09-19T07:18:12;94953.13;;;23.58;60.21
6393;BME280;3229;42.674;23.282;2023-09-19T07:20:40;94949.88;;;23.62;60.49
6393;BME280;3229;42.674;23.282;2023-09-19T07:23:10;94947.22;;;23.69;59.83
6393;BME280;3229;42.674;23.282;2023-09-19T07:25:39;94946.03;;;23.71;59.95
6393;BME280;3229;42.674;23.282;2023-09-19T07:28:07;94951.25;;;23.71;59.56
6393;BME280;3229;42.674;23.282;2023-09-19T07:30:36;94956.09;;;23.61;60.13
6393;BME280;3229;42.674;23.282;2023-09-19T07:33:04;94925.97;;;23.34;60.15
6393;BME280;3229;42.674;23.282;2023-09-19T07:35:31;94951.34;;;23.51;60.32
6393;BME280;3229;42.674;23.282;2023-09-19T07:37:58;94946.22;;;23.38;60.50
6393;BME280;3229;42.674;23.282;2023-09-19T07:40:27;94929.28;;;23.16;60.81
6393;BME280;3229;42.674;23.282;2023-09-19T07:42:54;94949.13;;;23.23;61.30
6393;BME280;3229;42.674;23.282;2023-09-19T07:45:23;94952.72;;;23.22;61.25
6393;BME280;3229;42.674;23.282;2023-09-19T07:47:51;94953.56;;;23.16;61.79
6393;BME280;3229;42.674;23.282;2023-09-19T07:50:19;94955.78;;;23.13;61.24
6393;BME280;3229;42.674;23.282;2023-09-19T07:52:46;94953.47;;;22.98;61.76
6393;BME280;3229;42.674;23.282;2023-09-19T07:55:13;94954.13;;;22.73;62.51
6393;BME280;3229;42.674;23.282;2023-09-19T07:57:42;94955.59;;;22.49;63.05
6393;BME280;3229;42.674;23.282;2023-09-19T08:00:10;94965.22;;;22.56;63.39
6393;BME280;3229;42.674;23.282;2023-09-19T08:02:39;94962.00;;;22.60;63.42
6393;BME280;3229;42.674;23.282;2023-09-19T08:05:08;94957.38;;;22.69;63.48
6393;BME280;3229;42.674;23.282;2023-09-19T08:07:36;94948.69;;;22.82;62.85
6393;BME280;3229;42.674;23.282;2023-09-19T08:10:04;94942.63;;;22.88;62.70
6393;BME280;3229;42.674;23.282;2023-09-19T08:12:33;94937.25;;;22.83;62.79
6393;BME280;3229;42.674;23.282;2023-09-19T08:15:01;94936.25;;;22.90;62.23
6393;BME280;3229;42.674;23.282;2023-09-19T08:17:28;94938.00;;;22.96;62.27
6393;BME280;3229;42.674;23.282;2023-09-19T08:19:56;94935.94;;;23.12;62.03
6393;BME280;3229;42.674;23.282;2023-09-19T08:22:22;94926.38;;;23.31;61.60
6393;BME280;3229;42.674;23.282;2023-09-19T08:24:49;94917.03;;;23.48;61.03
6393;BME280;3229;42.674;23.282;2023-09-19T08:27:16;94917.72;;;23.62;60.07
6393;BME280;3229;42.674;23.282;2023-09-19T08:29:43;94918.56;;;23.56;60.14
6393;BME280;3229;42.674;23.282;2023-09-19T08:32:10;94924.34;;;23.64;60.53
6393;BME280;3229;42.674;23.282;2023-09-19T08:34:37;94922.25;;;23.80;59.26
6393;BME280;3229;42.674;23.282;2023-09-19T08:37:05;94940.69;;;23.85;59.11
6393;BME280;3229;42.674;23.282;2023-09-19T08:39:32;94943.41;;;23.71;59.19
6393;BME280;3229;42.674;23.282;2023-09-19T08:42:01;94935.56;;;23.71;59.42
6393;BME280;3229;42.674;23.282;2023-09-19T08:44:29;94932.72;;;23.73;59.95
6393;BME280;3229;42.674;23.282;2023-09-19T08:47:01;94926.03;;;23.84;60.05
6393;BME280;3229;42.674;23.282;2023-09-19T08:49:36;94926.47;;;23.99;59.68
6393;BME280;3229;42.674;23.282;2023-09-19T08:52:20;94914.84;;;24.20;58.77
6393;BME280;3229;42.674;23.282;2023-09-19T08:54:50;94918.59;;;24.24;58.56
6393;BME280;3229;42.674;23.282;2023-09-19T08:57:19;94889.06;;;24.05;58.49
6393;BME280;3229;42.674;23.282;2023-09-19T08:59:48;94920.72;;;24.15;58.49
6393;BME280;3229;42.674;23.282;2023-09-19T09:02:16;94918.09;;;24.15;58.79
6393;BME280;3229;42.674;23.282;2023-09-19T09:04:45;94913.72;;;24.09;59.36
6393;BME280;3229;42.674;23.282;2023-09-19T09:07:14;94917.50;;;24.13;59.11
6393;BME280;3229;42.674;23.282;2023-09-19T09:09:42;94909.97;;;24.23;58.76
6393;BME280;3229;42.674;23.282;2023-09-19T09:12:11;94913.75;;;24.27;58.31
6393;BME280;3229;42.674;23.282;2023-09-19T09:14:39;94913.03;;;24.39;58.35
6393;BME280;3229;42.674;23.282;2023-09-19T09:17:07;94903.50;;;24.26;57.99
6393;BME280;3229;42.674;23.282;2023-09-19T09:19:34;94903.59;;;24.19;58.32
6393;BME280;3229;42.674;23.282;2023-09-19T09:22:07;94893.28;;;24.24;58.41
6393;BME280;3229;42.674;23.282;2023-09-19T09:24:36;94866.75;;;24.02;58.59
6393;BME280;3229;42.674;23.282;2023-09-19T09:27:06;94888.47;;;24.21;58.47
6393;BME280;3229;42.674;23.282;2023-09-19T09:29:41;94896.16;;;24.16;59.04
6393;BME280;3229;42.674;23.282;2023-09-19T09:32:22;94884.22;;;24.27;58.67
6393;BME280;3229;42.674;23.282;2023-09-19T09:34:51;94890.47;;;24.44;58.54
6393;BME280;3229;42.674;23.282;2023-09-19T09:37:19;94884.19;;;24.64;57.82
6393;BME280;3229;42.674;23.282;2023-09-19T09:39:52;94877.22;;;24.76;57.37
6393;BME280;3229;42.674;23.282;2023-09-19T09:42:32;94873.63;;;24.89;56.71
6393;BME280;3229;42.674;23.282;2023-09-19T09:45:14;94882.66;;;25.05;56.38
6393;BME280;3229;42.674;23.282;2023-09-19T09:47:42;94870.44;;;25.28;55.72
6393;BME280;3229;42.674;23.282;2023-09-19T09:50:23;94861.00;;;25.27;55.71
6393;BME280;3229;42.674;23.282;2023-09-19T09:52:55;94868.66;;;25.41;55.37
6393;BME280;3229;42.674;23.282;2023-09-19T09:55:57;94874.13;;;25.39;55.61
6393;BME280;3229;42.674;23.282;2023-09-19T09:58:25;94870.59;;;25.45;54.98
6393;BME280;3229;42.674;23.282;2023-09-19T10:00:54;94867.97;;;25.45;55.57
6393;BME280;3229;42.674;23.282;2023-09-19T10:03:31;94865.91;;;25.47;54.92
6393;BME280;3229;42.674;23.282;2023-09-19T10:06:00;94874.59;;;25.48;55.64
6393;BME280;3229;42.674;23.282;2023-09-19T10:08:36;94869.56;;;25.46;55.79
6393;BME280;3229;42.674;23.282;2023-09-19T10:11:16;94865.47;;;25.50;55.84
6393;BME280;3229;42.674;23.282;2023-09-19T10:13:46;94859.69;;;25.48;55.29
6393;BME280;3229;42.674;23.282;2023-09-19T10:16:13;94853.41;;;25.49;55.61
6393;BME280;3229;42.674;23.282;2023-09-19T10:18:44;94857.53;;;25.57;54.95
6393;BME280;3229;42.674;23.282;2023-09-19T10:21:14;94854.34;;;25.43;55.39
6393;BME280;3229;42.674;23.282;2023-09-19T10:23:48;94853.94;;;25.28;55.77
6393;BME280;3229;42.674;23.282;2023-09-19T10:26:19;94852.50;;;25.44;55.27
6393;BME280;3229;42.674;23.282;2023-09-19T10:28:50;94855.34;;;25.31;55.42
6393;BME280;3229;42.674;23.282;2023-09-19T10:31:20;94854.88;;;25.34;56.12
6393;BME280;3229;42.674;23.282;2023-09-19T10:33:49;94850.88;;;25.43;56.26
6393;BME280;3229;42.674;23.282;2023-09-19T10:36:17;94852.38;;;25.50;55.26
6393;BME280;3229;42.674;23.282;2023-09-19T10:38:45;94855.59;;;25.52;55.25
6393;BME280;3229;42.674;23.282;2023-09-19T10:41:16;94850.91;;;25.55;54.80
6393;BME280;3229;42.674;23.282;2023-09-19T10:43:45;94849.22;;;25.48;54.66
6393;BME280;3229;42.674;23.282;2023-09-19T10:46:14;94843.03;;;25.43;55.16
6393;BME280;3229;42.674;23.282;2023-09-19T10:48:41;94844.41;;;25.45;54.77
6393;BME280;3229;42.674;23.282;2023-09-19T10:51:17;94841.91;;;25.50;54.30
6393;BME280;3229;42.674;23.282;2023-09-19T10:53:51;94831.66;;;25.37;54.78
6393;BME280;3229;42.674;23.282;2023-09-19T10:56:23;94809.53;;;25.21;55.05
6393;BME280;3229;42.674;23.282;2023-09-19T10:59:05;94832.25;;;25.39;55.25
6393;BME280;3229;42.674;23.282;2023-09-19T11:01:42;94826.44;;;25.49;54.12
6393;BME280;3229;42.674;23.282;2023-09-19T11:04:26;94832.25;;;25.39;54.97
6393;BME280;3229;42.674;23.282;2023-09-19T11:07:03;94824.03;;;25.36;54.39
6393;BME280;3229;42.674;23.282;2023-09-19T11:09:47;94826.38;;;25.25;55.15
6393;BME280;3229;42.674;23.282;2023-09-19T11:12:49;94819.00;;;25.22;55.52
6393;BME280;3229;42.674;23.282;2023-09-19T11:18:52;94822.53;;;25.28;55.37
6393;BME280;3229;42.674;23.282;2023-09-19T11:21:51;94813.22;;;25.44;55.01
6393;BME280;3229;42.674;23.282;2023-09-19T11:24:32;94811.75;;;25.48;54.55
6393;BME280;3229;42.674;23.282;2023-09-19T11:27:15;94817.66;;;25.55;54.59
6393;BME280;3229;42.674;23.282;2023-09-19T11:29:43;94802.97;;;25.54;53.85
6393;BME280;3229;42.674;23.282;2023-09-19T11:32:10;94807.88;;;25.62;53.92
6393;BME280;3229;42.674;23.282;2023-09-19T11:34:39;94798.97;;;25.63;53.89
6393;BME280;3229;42.674;23.282;2023-09-19T11:40:10;94788.41;;;25.82;54.09
6393;BME280;3229;42.674;23.282;2023-09-19T11:42:42;94777.81;;;25.88;54.48
6393;BME280;3229;42.674;23.282;2023-09-19T11:48:12;94772.75;;;25.98;53.96
6393;BME280;3229;42.674;23.282;2023-09-19T11:50:42;94776.41;;;25.97;54.24
6393;BME280;3229;42.674;23.282;2023-09-19T11:53:09;94775.41;;;25.87;54.84
6393;BME280;3229;42.674;23.282;2023-09-19T11:55:37;94768.81;;;25.84;55.11
6393;BME280;3229;42.674;23.282;2023-09-19T11:58:05;94764.25;;;25.80;55.32
6393;BME280;3229;42.674;23.282;2023-09-19T12:00:34;94764.25;;;25.80;54.89
6393;BME280;3229;42.674;23.282;2023-09-19T12:03:09;94765.84;;;25.92;54.72
6393;BME280;3229;42.674;23.282;2023-09-19T12:05:37;94748.72;;;25.90;54.58
6393;BME280;3229;42.674;23.282;2023-09-19T12:08:05;94751.78;;;25.98;54.74
6393;BME280;3229;42.674;23.282;2023-09-19T12:10:45;94752.59;;;25.99;54.96
6393;BME280;3229;42.674;23.282;2023-09-19T12:13:16;94737.09;;;25.97;54.85
6393;BME280;3229;42.674;23.282;2023-09-19T12:15:43;94746.69;;;25.92;54.94
6393;BME280;3229;42.674;23.282;2023-09-19T12:18:26;94745.06;;;26.02;55.24
6393;BME280;3229;42.674;23.282;2023-09-19T12:20:53;94736.41;;;26.02;54.43
6393;BME280;3229;42.674;23.282;2023-09-19T12:23:22;94737.41;;;26.13;54.04
6393;BME280;3229;42.674;23.282;2023-09-19T12:25:48;94724.75;;;26.10;53.26
6393;BME280;3229;42.674;23.282;2023-09-19T12:28:19;94731.50;;;26.06;53.31
6393;BME280;3229;42.674;23.282;2023-09-19T12:30:47;94720.34;;;25.98;53.72
6393;BME280;3229;42.674;23.282;2023-09-19T12:33:16;94681.44;;;25.79;53.90
6393;BME280;3229;42.674;23.282;2023-09-19T12:35:45;94712.47;;;25.98;53.75
6393;BME280;3229;42.674;23.282;2023-09-19T12:38:24;94723.75;;;25.99;53.97
6393;BME280;3229;42.674;23.282;2023-09-19T12:40:54;94707.81;;;26.00;53.77
6393;BME280;3229;42.674;23.282;2023-09-19T12:43:22;94708.16;;;26.04;53.78
6393;BME280;3229;42.674;23.282;2023-09-19T12:45:50;94716.44;;;26.13;53.76
6393;BME280;3229;42.674;23.282;2023-09-19T12:48:20;94711.19;;;26.13;53.55
6393;BME280;3229;42.674;23.282;2023-09-19T12:51:00;94720.88;;;26.12;53.59
6393;BME280;3229;42.674;23.282;2023-09-19T12:53:32;94719.84;;;26.13;53.45
6393;BME280;3229;42.674;23.282;2023-09-19T12:56:01;94713.94;;;26.06;53.56
6393;BME280;3229;42.674;23.282;2023-09-19T12:58:31;94708.69;;;26.06;53.98
6393;BME280;3229;42.674;23.282;2023-09-19T13:01:00;94701.44;;;25.96;53.96
6393;BME280;3229;42.674;23.282;2023-09-19T13:03:28;94698.25;;;25.94;54.67
6393;BME280;3229;42.674;23.282;2023-09-19T13:05:59;94676.63;;;25.75;54.32
6393;BME280;3229;42.674;23.282;2023-09-19T13:08:28;94690.53;;;25.88;54.95
6393;BME280;3229;42.674;23.282;2023-09-19T13:11:16;94696.91;;;25.92;54.86
6393;BME280;3229;42.674;23.282;2023-09-19T13:13:45;94697.25;;;25.95;54.85
6393;BME280;3229;42.674;23.282;2023-09-19T13:16:14;94672.31;;;25.81;55.12
6393;BME280;3229;42.674;23.282;2023-09-19T13:18:47;94683.31;;;25.95;54.86
6393;BME280;3229;42.674;23.282;2023-09-19T13:21:16;94680.31;;;26.03;54.47
6393;BME280;3229;42.674;23.282;2023-09-19T13:23:52;94673.91;;;26.11;54.82
6393;BME280;3229;42.674;23.282;2023-09-19T13:26:21;94661.19;;;26.02;54.89
6393;BME280;3229;42.674;23.282;2023-09-19T13:28:48;94667.09;;;26.10;55.17
6393;BME280;3229;42.674;23.282;2023-09-19T13:31:15;94664.72;;;26.08;54.78
6393;BME280;3229;42.674;23.282;2023-09-19T13:33:45;94664.81;;;26.13;54.55